Stolt Ami — 3EAZ5 — position and weather

sailwx.info

Track history (hours):
 
Tides and Currents Weather Stations Pressure Air Temp Water Temp Dewpoint Dewpoint Depression Visibility Wind Speed Wind Dir Waves Ship Positions

Stolt Ami

Last reported at 2014-Oct-03 02:17 UTC. Time now 2014-Oct-23 05:24 UTC.
Position N 22°54' E 119°55'.
Warning: this ship's position is 20 days out of date.

Length 143 m; draft 8.5 m.

Type: Tanker. MMSI: 371433000.

Date/timePositionNaut miles runAvg speedWind from/ knotsBaromVisibWave heightAir tempDewpointWater temp
2014-Oct-03 02:17N 22°54' E 119°55'912.8
2014-Oct-03 01:33N 22°47' E 120°01'1212.5
2014-Oct-03 00:33N 22°39' E 120°11'7 7.0
2014-Oct-02 23:33N 22°36' E 120°18'0 0.0
2014-Oct-02 22:27N 22°36' E 120°18'0 0.0
2014-Oct-02 21:33N 22°36' E 120°18'0 0.0
2014-Oct-02 20:33N 22°36' E 120°18'0 0.0
2014-Oct-02 19:33N 22°36' E 120°18'0 0.0
2014-Oct-02 18:33N 22°36' E 120°18'0 0.0
2014-Oct-02 17:33N 22°36' E 120°18'0 0.0
2014-Oct-02 16:33N 22°36' E 120°18'0 0.0
2014-Oct-02 15:33N 22°36' E 120°18'0 0.0
2014-Oct-02 14:33N 22°36' E 120°18'0 0.0
2014-Oct-02 13:33N 22°36' E 120°18'0 0.0
2014-Oct-02 12:27N 22°36' E 120°18'0 0.0
2014-Oct-02 11:27N 22°36' E 120°18'0 0.0
2014-Oct-02 10:27N 22°36' E 120°18'0 0.0
2014-Oct-02 04:15N 22°36' E 120°18'2 3.5
2014-Oct-02 03:32N 22°37' E 120°16'3 2.7
2014-Oct-02 02:29N 22°35' E 120°14'0 0.0
2014-Oct-02 00:23N 22°35' E 120°14'0 0.1
2014-Oct-01 23:29N 22°35' E 120°14'0 0.0
2014-Oct-01 22:29N 22°35' E 120°14'0 0.1
2014-Oct-01 21:29N 22°35' E 120°14'0 0.0
2014-Oct-01 20:29N 22°35' E 120°14'0 0.0
2014-Oct-01 19:29N 22°35' E 120°14'0 0.0
2014-Oct-01 18:23N 22°35' E 120°14'0 0.0
2014-Oct-01 17:29N 22°35' E 120°14'0 0.1
2014-Oct-01 16:29N 22°35' E 120°14'0 0.3
2014-Oct-01 15:33N 22°35' E 120°14'8 8.3
2014-Oct-01 14:33N 22°31' E 120°06'9 8.7
2014-Oct-01 13:33N 22°27' E 119°58'  
2014-Sep-26 14:07N 01°15' E 104°04'711.8
2014-Sep-26 13:34N 01°14' E 103°58'1212.3
2014-Sep-26 12:33N 01°08' E 103°47'1111.2
2014-Sep-26 11:33N 01°04' E 103°36'7 6.9
2014-Sep-26 10:33N 01°11' E 103°36'4 3.9
2014-Sep-26 09:33N 01°13' E 103°39'0 0.1
2014-Sep-26 08:29N 01°13' E 103°39'0 0.0
2014-Sep-26 07:29N 01°13' E 103°39'0 0.0
2014-Sep-26 06:32N 01°13' E 103°39'0 0.0
2014-Sep-26 05:29N 01°13' E 103°39'0 0.1
2014-Sep-26 04:32N 01°13' E 103°39'0 0.0
2014-Sep-26 03:32N 01°13' E 103°39'0 0.0
2014-Sep-26 02:32N 01°13' E 103°39'0 0.0
2014-Sep-26 01:32N 01°13' E 103°39'0 0.1
2014-Sep-26 00:29N 01°13' E 103°39'1 1.0
2014-Sep-25 23:33N 01°13' E 103°40'6 6.4
2014-Sep-25 22:34N 01°18' E 103°44'0 0.2
2014-Sep-25 21:32N 01°18' E 103°44'0 0.0
2014-Sep-25 20:29N 01°18' E 103°44'0 0.0
2014-Sep-25 19:32N 01°18' E 103°44'0 0.0
2014-Sep-25 18:29N 01°18' E 103°44'0 0.0
2014-Sep-25 17:32N 01°18' E 103°44'0 0.0
2014-Sep-25 16:32N 01°18' E 103°44'0 0.0
2014-Sep-25 15:29N 01°18' E 103°44'0 0.0
2014-Sep-25 14:32N 01°18' E 103°44'0 0.0
2014-Sep-25 13:32N 01°18' E 103°44'0 0.0
2014-Sep-25 12:32N 01°18' E 103°44'0 0.0
2014-Sep-25 11:26N 01°18' E 103°44'1 1.2
2014-Sep-25 10:33N 01°17' E 103°45'2 2.2
2014-Sep-25 09:29N 01°15' E 103°43'0 0.0
2014-Sep-25 08:31N 01°15' E 103°43'0 0.0
2014-Sep-25 07:32N 01°15' E 103°43'0 0.0
2014-Sep-25 06:31N 01°15' E 103°43'0 0.0
2014-Sep-25 05:32N 01°15' E 103°43'0 0.0
2014-Sep-25 04:31N 01°15' E 103°43'0 0.0
2014-Sep-25 03:32N 01°15' E 103°43'0 0.0
2014-Sep-25 02:32N 01°15' E 103°43'0 0.0
2014-Sep-25 01:31N 01°15' E 103°43'0 0.0
2014-Sep-25 00:31N 01°15' E 103°43'0 0.0
2014-Sep-24 23:31N 01°15' E 103°43'0 0.1
2014-Sep-24 22:33N 01°15' E 103°43'2 1.8
2014-Sep-24 21:27N 01°16' E 103°44'0 0.0
2014-Sep-24 20:33N 01°16' E 103°44'0 0.0
2014-Sep-24 19:33N 01°16' E 103°44'0 0.0
2014-Sep-24 18:33N 01°16' E 103°44'0 0.0
2014-Sep-24 17:33N 01°16' E 103°44'0 0.0
2014-Sep-24 16:33N 01°16' E 103°44'0 0.0
2014-Sep-24 15:33N 01°16' E 103°44'0 0.0
2014-Sep-24 14:33N 01°16' E 103°44'0 0.0
2014-Sep-24 13:33N 01°16' E 103°44'0 0.0
2014-Sep-24 12:33N 01°16' E 103°44'0 0.0
2014-Sep-24 11:33N 01°16' E 103°44'0 0.0
2014-Sep-24 10:30N 01°16' E 103°44'0 0.0
2014-Sep-24 09:33N 01°16' E 103°44'0 0.0
2014-Sep-24 08:33N 01°16' E 103°44'0 0.0
2014-Sep-24 07:33N 01°16' E 103°44'0 0.0
2014-Sep-24 06:33N 01°16' E 103°44'0 0.0
2014-Sep-24 05:33N 01°16' E 103°44'0 0.0
2014-Sep-24 04:33N 01°16' E 103°44'0 0.0
2014-Sep-24 03:33N 01°16' E 103°44'3 2.5
2014-Sep-24 02:34N 01°14' E 103°43'4 3.1
2014-Sep-24 01:20N 01°14' E 103°39'0 0.0
2014-Sep-24 00:32N 01°14' E 103°39'0 0.1
2014-Sep-23 23:32N 01°14' E 103°39'1 1.2
2014-Sep-23 22:33N 01°12' E 103°39'6 5.9
2014-Sep-23 21:33N 01°11' E 103°33'6 5.9
2014-Sep-23 20:33N 01°10' E 103°27'2 2.2
2014-Sep-23 19:33N 01°11' E 103°25'  
Track history (hours):
 
Tides and Currents Weather Stations Pressure Air Temp Water Temp Dewpoint Dewpoint Depression Visibility Wind Speed Wind Dir Waves Ship Positions

Stolt Ami

Last reported at 2014-Oct-03 02:17 UTC. Time now 2014-Oct-23 05:24 UTC.
Position N 22°54' E 119°55'.
Warning: this ship's position is 20 days out of date.

Length 143 m; draft 8.5 m.

Type: Tanker. MMSI: 371433000.

Date/timePositionNaut miles runAvg speedWind from/ knotsBaromVisibWave heightAir tempDewpointWater temp
2014-Oct-03 02:17N 22°54' E 119°55'912.8
2014-Oct-03 01:33N 22°47' E 120°01'1212.5
2014-Oct-03 00:33N 22°39' E 120°11'7 7.0
2014-Oct-02 23:33N 22°36' E 120°18'0 0.0
2014-Oct-02 22:27N 22°36' E 120°18'0 0.0
2014-Oct-02 21:33N 22°36' E 120°18'0 0.0
2014-Oct-02 20:33N 22°36' E 120°18'0 0.0
2014-Oct-02 19:33N 22°36' E 120°18'0 0.0
2014-Oct-02 18:33N 22°36' E 120°18'0 0.0
2014-Oct-02 17:33N 22°36' E 120°18'0 0.0
2014-Oct-02 16:33N 22°36' E 120°18'0 0.0
2014-Oct-02 15:33N 22°36' E 120°18'0 0.0
2014-Oct-02 14:33N 22°36' E 120°18'0 0.0
2014-Oct-02 13:33N 22°36' E 120°18'0 0.0
2014-Oct-02 12:27N 22°36' E 120°18'0 0.0
2014-Oct-02 11:27N 22°36' E 120°18'0 0.0
2014-Oct-02 10:27N 22°36' E 120°18'0 0.0
2014-Oct-02 04:15N 22°36' E 120°18'2 3.5
2014-Oct-02 03:32N 22°37' E 120°16'3 2.7
2014-Oct-02 02:29N 22°35' E 120°14'0 0.0
2014-Oct-02 00:23N 22°35' E 120°14'0 0.1
2014-Oct-01 23:29N 22°35' E 120°14'0 0.0
2014-Oct-01 22:29N 22°35' E 120°14'0 0.1
2014-Oct-01 21:29N 22°35' E 120°14'0 0.0
2014-Oct-01 20:29N 22°35' E 120°14'0 0.0
2014-Oct-01 19:29N 22°35' E 120°14'0 0.0
2014-Oct-01 18:23N 22°35' E 120°14'0 0.0
2014-Oct-01 17:29N 22°35' E 120°14'0 0.1
2014-Oct-01 16:29N 22°35' E 120°14'0 0.3
2014-Oct-01 15:33N 22°35' E 120°14'8 8.3
2014-Oct-01 14:33N 22°31' E 120°06'9 8.7
2014-Oct-01 13:33N 22°27' E 119°58'  
2014-Sep-26 14:07N 01°15' E 104°04'711.8
2014-Sep-26 13:34N 01°14' E 103°58'1212.3
2014-Sep-26 12:33N 01°08' E 103°47'1111.2
2014-Sep-26 11:33N 01°04' E 103°36'7 6.9
2014-Sep-26 10:33N 01°11' E 103°36'4 3.9
2014-Sep-26 09:33N 01°13' E 103°39'0 0.1
2014-Sep-26 08:29N 01°13' E 103°39'0 0.0
2014-Sep-26 07:29N 01°13' E 103°39'0 0.0
2014-Sep-26 06:32N 01°13' E 103°39'0 0.0
2014-Sep-26 05:29N 01°13' E 103°39'0 0.1
2014-Sep-26 04:32N 01°13' E 103°39'0 0.0
2014-Sep-26 03:32N 01°13' E 103°39'0 0.0
2014-Sep-26 02:32N 01°13' E 103°39'0 0.0
2014-Sep-26 01:32N 01°13' E 103°39'0 0.1
2014-Sep-26 00:29N 01°13' E 103°39'1 1.0
2014-Sep-25 23:33N 01°13' E 103°40'6 6.4
2014-Sep-25 22:34N 01°18' E 103°44'0 0.2
2014-Sep-25 21:32N 01°18' E 103°44'0 0.0
2014-Sep-25 20:29N 01°18' E 103°44'0 0.0
2014-Sep-25 19:32N 01°18' E 103°44'0 0.0
2014-Sep-25 18:29N 01°18' E 103°44'0 0.0
2014-Sep-25 17:32N 01°18' E 103°44'0 0.0
2014-Sep-25 16:32N 01°18' E 103°44'0 0.0
2014-Sep-25 15:29N 01°18' E 103°44'0 0.0
2014-Sep-25 14:32N 01°18' E 103°44'0 0.0
2014-Sep-25 13:32N 01°18' E 103°44'0 0.0
2014-Sep-25 12:32N 01°18' E 103°44'0 0.0
2014-Sep-25 11:26N 01°18' E 103°44'1 1.2
2014-Sep-25 10:33N 01°17' E 103°45'2 2.2
2014-Sep-25 09:29N 01°15' E 103°43'0 0.0
2014-Sep-25 08:31N 01°15' E 103°43'0 0.0
2014-Sep-25 07:32N 01°15' E 103°43'0 0.0
2014-Sep-25 06:31N 01°15' E 103°43'0 0.0
2014-Sep-25 05:32N 01°15' E 103°43'0 0.0
2014-Sep-25 04:31N 01°15' E 103°43'0 0.0
2014-Sep-25 03:32N 01°15' E 103°43'0 0.0
2014-Sep-25 02:32N 01°15' E 103°43'0 0.0
2014-Sep-25 01:31N 01°15' E 103°43'0 0.0
2014-Sep-25 00:31N 01°15' E 103°43'0 0.0
2014-Sep-24 23:31N 01°15' E 103°43'0 0.1
2014-Sep-24 22:33N 01°15' E 103°43'2 1.8
2014-Sep-24 21:27N 01°16' E 103°44'0 0.0
2014-Sep-24 20:33N 01°16' E 103°44'0 0.0
2014-Sep-24 19:33N 01°16' E 103°44'0 0.0
2014-Sep-24 18:33N 01°16' E 103°44'0 0.0
2014-Sep-24 17:33N 01°16' E 103°44'0 0.0
2014-Sep-24 16:33N 01°16' E 103°44'0 0.0
2014-Sep-24 15:33N 01°16' E 103°44'0 0.0
2014-Sep-24 14:33N 01°16' E 103°44'0 0.0
2014-Sep-24 13:33N 01°16' E 103°44'0 0.0
2014-Sep-24 12:33N 01°16' E 103°44'0 0.0
2014-Sep-24 11:33N 01°16' E 103°44'0 0.0
2014-Sep-24 10:30N 01°16' E 103°44'0 0.0
2014-Sep-24 09:33N 01°16' E 103°44'0 0.0
2014-Sep-24 08:33N 01°16' E 103°44'0 0.0
2014-Sep-24 07:33N 01°16' E 103°44'0 0.0
2014-Sep-24 06:33N 01°16' E 103°44'0 0.0
2014-Sep-24 05:33N 01°16' E 103°44'0 0.0
2014-Sep-24 04:33N 01°16' E 103°44'0 0.0
2014-Sep-24 03:33N 01°16' E 103°44'3 2.5
2014-Sep-24 02:34N 01°14' E 103°43'4 3.1
2014-Sep-24 01:20N 01°14' E 103°39'0 0.0
2014-Sep-24 00:32N 01°14' E 103°39'0 0.1
2014-Sep-23 23:32N 01°14' E 103°39'1 1.2
2014-Sep-23 22:33N 01°12' E 103°39'6 5.9
2014-Sep-23 21:33N 01°11' E 103°33'6 5.9
2014-Sep-23 20:33N 01°10' E 103°27'2 2.2
2014-Sep-23 19:33N 01°11' E 103°25'  

Dump ship's entire track history